Time;durP1;ratioP1;P1;durP2;ratioP2;P2;SDS_P1;SDS_P2;PMS_P1;PMS_P2;Temp;Humidity;BMP_temperature;BMP_pressure;BME280_temperature;BME280_humidity;BME280_pressure;Samples;Min_cycle;Max_cycle;Signal;HPM_P1;HPM_P2
2022/09/11 00:01:12;;;;;;;41.25;24.23;;;15.10;94.50;;;;;;4995843;28;20375;-37
2022/09/11 00:03:37;;;;;;;35.35;20.65;;;15.20;94.60;;;;;;4995938;28;20333;-38
2022/09/11 00:06:05;;;;;;;29.90;20.83;;;15.10;94.50;;;;;;4995587;28;20027;-38
2022/09/11 00:08:32;;;;;;;35.65;22.02;;;15.10;94.60;;;;;;4995876;28;20061;-39
2022/09/11 00:11:16;;;;;;;32.80;19.95;;;15.00;94.60;;;;;;4995690;28;20018;-39
2022/09/11 00:13:44;;;;;;;32.88;20.33;;;14.90;94.60;;;;;;4995258;28;20125;-39
2022/09/11 00:16:31;;;;;;;37.10;21.58;;;14.90;94.60;;;;;;4995414;28;20029;-38
2022/09/11 00:19:00;;;;;;;34.17;20.30;;;14.90;94.70;;;;;;4995392;28;20430;-38
2022/09/11 00:21:26;;;;;;;35.92;20.58;;;14.90;94.80;;;;;;4995448;28;20475;-39
2022/09/11 00:23:52;;;;;;;36.42;22.27;;;14.90;94.70;;;;;;4995445;28;20054;-39
2022/09/11 00:26:18;;;;;;;38.90;22.33;;;14.80;94.70;;;;;;4995556;28;20033;-40
2022/09/11 00:28:45;;;;;;;35.67;22.08;;;14.80;94.70;;;;;;4995164;28;20030;-39
2022/09/11 00:31:13;;;;;;;39.20;23.50;;;14.80;94.80;;;;;;4995464;28;20439;-39
2022/09/11 00:33:40;;;;;;;37.10;21.75;;;14.80;94.80;;;;;;4995023;28;20031;-40
2022/09/11 00:36:11;;;;;;;39.65;22.95;;;14.70;94.90;;;;;;4995118;28;20018;-38
2022/09/11 00:38:38;;;;;;;41.53;23.25;;;14.80;94.90;;;;;;4995223;28;20057;-38
2022/09/11 00:41:07;;;;;;;39.72;23.00;;;14.80;94.90;;;;;;4994692;28;20402;-37
2022/09/11 00:43:54;;;;;;;43.33;22.88;;;14.80;95.00;;;;;;4993618;28;20052;-38
2022/09/11 00:46:20;;;;;;;40.05;22.77;;;14.70;94.90;;;;;;4994663;28;20113;-38
2022/09/11 00:48:48;;;;;;;36.67;23.48;;;14.80;95.00;;;;;;4994753;28;20038;-38
2022/09/11 00:51:19;;;;;;;44.53;23.05;;;14.70;95.00;;;;;;4994979;28;20165;-37
2022/09/11 00:53:46;;;;;;;34.88;21.90;;;14.80;94.90;;;;;;4994896;28;20100;-40
2022/09/11 00:56:12;;;;;;;36.88;20.98;;;14.70;95.00;;;;;;4993714;28;20023;-39
2022/09/11 00:58:41;;;;;;;43.00;24.02;;;14.70;94.90;;;;;;4994630;28;20026;-39
2022/09/11 01:01:07;;;;;;;34.17;22.38;;;14.70;95.00;;;;;;4994732;28;20022;-39
2022/09/11 01:03:33;;;;;;;38.83;21.55;;;14.60;95.00;;;;;;4994721;28;20030;-38
2022/09/11 01:05:59;;;;;;;38.80;23.77;;;14.70;95.00;;;;;;4994372;28;20129;-39
2022/09/11 01:08:26;;;;;;;39.65;23.67;;;14.60;95.00;;;;;;4994529;28;20030;-38
2022/09/11 01:11:11;;;;;;;41.45;24.35;;;14.70;95.10;;;;;;4994328;28;20022;-44
2022/09/11 01:14:05;;;;;;;40.70;23.95;;;14.70;95.10;;;;;;4993979;28;20046;-38
2022/09/11 01:16:55;;;;;;;40.03;23.10;;;14.80;95.00;;;;;;4994435;28;20121;-38
2022/09/11 01:19:33;;;;;;;41.70;24.70;;;14.80;95.00;;;;;;4994402;28;20102;-38
2022/09/11 01:22:25;;;;;;;51.42;24.98;;;14.80;95.00;;;;;;4994046;28;20089;-37
2022/09/11 01:25:11;;;;;;;40.95;24.88;;;14.80;95.00;;;;;;4993111;28;20056;-37
2022/09/11 01:27:39;;;;;;;50.20;26.23;;;14.80;95.00;;;;;;4992557;28;20081;-38
2022/09/11 01:30:17;;;;;;;41.92;24.42;;;14.80;95.00;;;;;;4993813;28;20087;-38
2022/09/11 01:33:01;;;;;;;44.70;24.33;;;14.80;95.00;;;;;;4993801;28;20026;-38
2022/09/11 01:35:55;;;;;;;43.83;24.90;;;14.80;95.00;;;;;;4992640;28;20069;-38
2022/09/11 01:38:21;;;;;;;36.60;21.80;;;14.90;95.00;;;;;;4992611;28;20022;-37
2022/09/11 01:41:00;;;;;;;44.80;23.58;;;14.90;95.00;;;;;;4993773;28;20482;-38
2022/09/11 01:43:29;;;;;;;42.30;22.90;;;14.90;94.90;;;;;;4994412;28;20026;-37
2022/09/11 01:45:58;;;;;;;47.22;24.73;;;15.00;94.90;;;;;;4993678;28;20102;-38
2022/09/11 01:48:30;;;;;;;44.28;25.25;;;15.10;94.90;;;;;;4994040;28;20041;-37
2022/09/11 01:50:59;;;;;;;49.78;26.92;;;15.20;94.90;;;;;;4994203;28;20026;-39
2022/09/11 01:53:30;;;;;;;44.95;26.35;;;15.20;94.70;;;;;;4993761;28;20034;-38
2022/09/11 01:56:01;;;;;;;41.60;24.15;;;15.20;94.70;;;;;;4993998;28;20057;-37
2022/09/11 01:58:30;;;;;;;38.97;24.75;;;15.20;94.70;;;;;;4993985;28;20029;-37
2022/09/11 02:01:06;;;;;;;42.13;25.70;;;15.30;94.60;;;;;;4993952;28;20076;-37
2022/09/11 02:03:38;;;;;;;41.90;24.02;;;15.30;94.50;;;;;;4993647;28;20031;-38
2022/09/11 02:06:09;;;;;;;41.53;24.35;;;15.30;94.50;;;;;;4993717;28;20327;-38
2022/09/11 02:08:42;;;;;;;37.85;23.75;;;15.30;94.50;;;;;;4992198;28;20031;-37
2022/09/11 02:11:11;;;;;;;41.05;24.67;;;15.30;94.40;;;;;;4993879;28;20556;-38
2022/09/11 02:13:58;;;;;;;40.03;23.27;;;15.30;94.30;;;;;;4993427;28;20193;-38
2022/09/11 02:17:31;;;;;;;45.53;26.42;;;15.30;94.30;;;;;;4993882;28;20037;-38
2022/09/11 02:19:59;;;;;;;41.88;25.08;;;15.30;94.30;;;;;;4971876;28;20050;-38
2022/09/11 02:22:24;;;;;;;49.47;27.30;;;15.30;94.10;;;;;;4972075;28;20033;-38
2022/09/11 02:24:51;;;;;;;48.13;26.63;;;15.30;94.00;;;;;;4981971;28;20487;-38
2022/09/11 02:27:22;;;;;;;51.40;27.58;;;15.30;93.80;;;;;;4993334;28;20501;-38
2022/09/11 02:29:48;;;;;;;52.78;30.05;;;15.30;93.80;;;;;;4993456;28;20018;-38
2022/09/11 02:32:14;;;;;;;56.38;29.20;;;15.30;93.80;;;;;;4993543;28;20085;-37
2022/09/11 02:34:41;;;;;;;56.75;30.00;;;15.30;93.80;;;;;;4992385;28;20036;-38
2022/09/11 02:37:17;;;;;;;57.00;29.08;;;15.30;93.70;;;;;;4997420;28;20068;-38
2022/09/11 02:40:05;;;;;;;60.95;29.83;;;15.30;93.70;;;;;;4997148;28;20014;-37
2022/09/11 02:43:08;;;;;;;66.65;32.30;;;15.30;93.60;;;;;;4997851;28;20053;-37
2022/09/11 02:46:06;;;;;;;62.72;30.33;;;15.30;93.70;;;;;;4997102;28;20033;-38
2022/09/11 02:48:44;;;;;;;56.83;28.75;;;15.20;93.60;;;;;;4996728;28;20038;-38
2022/09/11 02:51:48;;;;;;;63.55;29.63;;;15.20;93.70;;;;;;4997226;28;20053;-37
2022/09/11 02:54:46;;;;;;;56.28;29.33;;;15.10;93.70;;;;;;4997304;28;20443;-38
2022/09/11 02:57:23;;;;;;;54.35;28.52;;;15.10;93.80;;;;;;4977930;28;20034;-39
2022/09/11 02:59:54;;;;;;;71.28;28.65;;;15.10;93.90;;;;;;4995599;28;20125;-38
2022/09/11 03:02:22;;;;;;;58.67;27.98;;;15.10;93.90;;;;;;4996672;28;20147;-38
2022/09/11 03:04:47;;;;;;;50.50;26.40;;;15.00;93.90;;;;;;4996711;28;20035;-38
2022/09/11 03:07:13;;;;;;;76.72;28.67;;;15.00;94.00;;;;;;4996680;28;20033;-38
2022/09/11 03:09:39;;;;;;;47.75;24.88;;;15.00;94.00;;;;;;4996648;28;20359;-38
2022/09/11 03:12:04;;;;;;;58.72;25.77;;;14.90;94.10;;;;;;4996825;28;20379;-39
2022/09/11 03:14:30;;;;;;;50.42;24.55;;;14.90;94.00;;;;;;4996404;28;20053;-38
2022/09/11 03:16:56;;;;;;;49.92;27.42;;;14.90;94.10;;;;;;4996464;28;20097;-38
2022/09/11 03:19:22;;;;;;;69.63;24.92;;;14.80;94.20;;;;;;4996804;28;20158;-38
2022/09/11 03:21:48;;;;;;;49.33;25.27;;;14.80;94.30;;;;;;4996439;28;20022;-39
2022/09/11 03:24:15;;;;;;;52.92;26.73;;;14.80;94.10;;;;;;4996639;28;20034;-38
2022/09/11 03:26:41;;;;;;;50.53;24.70;;;14.80;94.30;;;;;;4996599;28;20393;-38
2022/09/11 03:29:07;;;;;;;66.38;25.52;;;14.80;94.30;;;;;;4996299;28;20117;-39
2022/09/11 03:31:33;;;;;;;57.35;27.15;;;14.80;94.30;;;;;;4996937;28;20030;-38
2022/09/11 03:33:59;;;;;;;122.15;27.17;;;14.90;94.30;;;;;;4996123;28;20381;-38
2022/09/11 03:36:25;;;;;;;64.13;27.13;;;14.90;94.30;;;;;;4994790;28;20026;-38
2022/09/11 03:38:51;;;;;;;70.47;28.92;;;14.90;94.30;;;;;;4996090;28;20054;-38
2022/09/11 03:41:17;;;;;;;96.95;29.00;;;14.80;94.10;;;;;;4996317;28;20057;-38
2022/09/11 03:43:43;;;;;;;62.55;27.92;;;14.90;94.30;;;;;;4996036;28;20491;-38
2022/09/11 03:46:09;;;;;;;59.53;30.15;;;14.90;94.30;;;;;;4995517;28;20053;-38
2022/09/11 03:48:35;;;;;;;82.10;28.00;;;14.90;94.30;;;;;;4995841;28;20030;-39
2022/09/11 03:51:01;;;;;;;62.83;24.80;;;14.90;94.30;;;;;;4995947;28;20038;-38
2022/09/11 03:53:27;;;;;;;87.57;27.83;;;14.90;94.20;;;;;;4995913;28;20034;-37
2022/09/11 03:55:53;;;;;;;80.57;28.38;;;14.90;94.20;;;;;;4996022;28;20052;-38
2022/09/11 03:58:19;;;;;;;65.95;28.55;;;14.90;94.10;;;;;;4996006;28;20034;-39
2022/09/11 04:00:46;;;;;;;81.40;29.02;;;14.80;94.10;;;;;;4996127;28;20456;-38
2022/09/11 04:03:14;;;;;;;78.93;30.17;;;14.90;94.20;;;;;;4995984;28;20038;-38
2022/09/11 04:05:40;;;;;;;147.27;33.83;;;14.90;94.20;;;;;;4995482;28;20034;-43
2022/09/11 04:08:05;;;;;;;92.78;27.83;;;15.00;94.30;;;;;;4995802;28;20030;-38
2022/09/11 04:10:32;;;;;;;109.45;30.42;;;14.90;94.20;;;;;;4995712;28;20030;-38
2022/09/11 04:12:57;;;;;;;88.50;30.58;;;15.00;94.20;;;;;;4995298;28;20104;-39
2022/09/11 04:15:23;;;;;;;75.68;31.75;;;15.00;94.40;;;;;;4994207;28;20026;-38
2022/09/11 04:17:48;;;;;;;84.40;29.15;;;15.00;94.20;;;;;;4995384;28;20126;-39
2022/09/11 04:20:14;;;;;;;64.03;27.88;;;14.90;94.20;;;;;;4995645;28;20022;-39
2022/09/11 04:22:40;;;;;;;73.38;29.17;;;14.90;94.30;;;;;;4995538;28;20030;-39
2022/09/11 04:25:07;;;;;;;110.00;31.23;;;14.80;94.20;;;;;;4995399;28;20553;-39
2022/09/11 04:27:33;;;;;;;69.15;29.25;;;14.90;94.30;;;;;;4995357;28;20026;-40
2022/09/11 04:29:59;;;;;;;57.10;26.05;;;14.80;94.30;;;;;;4995572;28;20030;-38
2022/09/11 04:32:24;;;;;;;52.33;25.83;;;14.90;94.30;;;;;;4994971;28;20053;-38
2022/09/11 04:34:50;;;;;;;80.97;27.67;;;14.80;94.20;;;;;;4993696;28;20033;-38
2022/09/11 04:37:16;;;;;;;101.50;27.63;;;14.80;94.20;;;;;;4995187;28;20034;-38
2022/09/11 04:39:42;;;;;;;110.50;27.95;;;14.80;94.10;;;;;;4995249;28;20014;-38
2022/09/11 04:42:09;;;;;;;79.10;25.60;;;14.80;94.10;;;;;;4994941;28;20022;-38
2022/09/11 04:44:35;;;;;;;59.50;26.00;;;14.70;94.20;;;;;;4994931;28;20391;-38
2022/09/11 04:47:01;;;;;;;66.57;25.38;;;14.70;94.20;;;;;;4993631;28;20018;-38
2022/09/11 04:49:26;;;;;;;101.10;26.38;;;14.70;94.40;;;;;;4995119;28;20530;-38
2022/09/11 18:13:41;;;;;;;19.60;13.93;;;17.50;82.30;;;;;;5092483;28;20372;-40
2022/09/11 18:16:07;;;;;;;18.67;13.02;;;17.50;82.30;;;;;;5071846;28;20039;-40
2022/09/11 18:18:33;;;;;;;18.35;13.35;;;17.50;82.30;;;;;;5090177;28;20021;-38
2022/09/11 18:21:10;;;;;;;22.02;15.20;;;17.60;82.40;;;;;;5071756;28;20044;-38
2022/09/11 18:23:41;;;;;;;20.23;14.82;;;17.50;82.60;;;;;;5090036;28;20054;-39
2022/09/11 18:26:09;;;;;;;21.58;12.50;;;17.50;83.00;;;;;;5089996;28;20028;-40
2022/09/11 18:28:35;;;;;;;17.75;12.70;;;17.40;83.30;;;;;;5090702;28;20025;-39
2022/09/11 18:31:05;;;;;;;19.23;13.52;;;17.40;83.80;;;;;;5091510;28;20025;-38
2022/09/11 18:33:32;;;;;;;18.40;13.10;;;17.30;84.10;;;;;;5090913;28;20165;-39
2022/09/11 18:36:03;;;;;;;20.30;12.43;;;17.30;84.40;;;;;;5091720;28;20036;-38
2022/09/11 18:38:28;;;;;;;18.15;12.57;;;17.20;84.60;;;;;;5071396;28;20023;-39
2022/09/11 18:40:57;;;;;;;23.17;14.13;;;17.20;84.90;;;;;;5072234;28;20029;-39
2022/09/11 18:43:24;;;;;;;17.30;12.80;;;17.10;85.30;;;;;;5069857;28;20052;-40
2022/09/11 18:45:50;;;;;;;16.40;12.23;;;17.00;85.50;;;;;;5070141;28;20029;-40
2022/09/11 18:48:16;;;;;;;19.13;13.10;;;17.00;85.80;;;;;;5069133;28;20358;-40
2022/09/11 18:50:42;;;;;;;21.83;12.48;;;17.00;86.10;;;;;;5069470;28;20079;-39
2022/09/11 18:53:08;;;;;;;15.10;11.65;;;16.90;86.20;;;;;;5068956;28;20053;-38
2022/09/11 18:55:34;;;;;;;22.48;15.70;;;16.80;86.30;;;;;;5069157;28;20063;-39
2022/09/11 18:58:00;;;;;;;20.48;14.13;;;16.80;86.70;;;;;;5069182;28;20020;-38
2022/09/11 19:00:27;;;;;;;22.23;13.90;;;16.80;86.80;;;;;;5051139;28;20020;-40
2022/09/11 19:02:55;;;;;;;18.77;11.95;;;16.70;86.80;;;;;;5068739;28;20082;-39
2022/09/11 19:05:22;;;;;;;23.38;13.32;;;16.60;87.10;;;;;;5068893;28;20112;-39
2022/09/11 19:07:48;;;;;;;22.10;13.15;;;16.50;87.40;;;;;;5068571;28;20039;-39
2022/09/11 19:10:14;;;;;;;19.80;13.07;;;16.50;87.60;;;;;;5069015;28;20104;-39
2022/09/11 19:12:40;;;;;;;22.20;12.43;;;16.50;87.70;;;;;;5055617;28;20095;-40
2022/09/11 19:15:07;;;;;;;21.48;12.32;;;16.40;87.90;;;;;;5048898;28;20060;-39
2022/09/11 19:17:35;;;;;;;18.73;12.20;;;16.30;88.10;;;;;;5048942;28;20422;-39
2022/09/11 19:20:03;;;;;;;17.85;12.48;;;16.30;88.30;;;;;;5030930;28;20113;-39
2022/09/11 19:22:30;;;;;;;19.20;13.43;;;16.30;88.40;;;;;;5048545;28;20116;-38
2022/09/11 19:24:57;;;;;;;25.55;15.98;;;16.20;88.60;;;;;;5035761;28;20441;-39
2022/09/11 19:27:25;;;;;;;19.23;14.02;;;16.30;88.80;;;;;;5035907;28;20025;-39
2022/09/11 19:29:52;;;;;;;19.95;15.25;;;16.20;89.00;;;;;;5035407;28;20461;-39
2022/09/11 19:32:18;;;;;;;23.08;15.40;;;16.20;89.00;;;;;;5035067;28;20022;-38
2022/09/11 19:34:45;;;;;;;24.42;14.63;;;16.10;89.10;;;;;;5035397;28;20033;-40
2022/09/11 19:37:12;;;;;;;24.85;16.88;;;16.10;89.20;;;;;;5035123;28;20029;-38
2022/09/11 19:39:38;;;;;;;20.27;15.40;;;16.00;89.20;;;;;;5035958;28;20055;-38
2022/09/11 19:42:04;;;;;;;25.73;14.90;;;15.90;89.40;;;;;;5017628;28;20044;-38
2022/09/11 19:44:33;;;;;;;25.30;16.23;;;15.90;89.50;;;;;;5035309;28;20032;-39
2022/09/11 19:46:59;;;;;;;22.23;14.38;;;15.90;89.80;;;;;;5035180;28;20469;-39
2022/09/11 19:49:25;;;;;;;28.00;14.65;;;15.90;89.80;;;;;;5034844;28;20028;-40
2022/09/11 19:51:52;;;;;;;17.02;13.27;;;15.80;89.90;;;;;;5034743;28;20354;-38
2022/09/11 19:54:17;;;;;;;21.52;15.20;;;15.80;90.10;;;;;;5034754;28;20022;-39
2022/09/11 19:56:44;;;;;;;29.75;15.38;;;15.80;90.20;;;;;;5017226;28;20116;-39
2022/09/11 19:59:11;;;;;;;21.42;14.50;;;15.80;90.20;;;;;;5035472;28;20029;-38
2022/09/11 20:01:37;;;;;;;26.05;14.45;;;15.80;90.30;;;;;;5017170;28;20026;-39
2022/09/11 20:04:03;;;;;;;25.42;15.43;;;15.70;90.30;;;;;;5034792;28;20549;-41
2022/09/11 20:06:30;;;;;;;23.20;14.85;;;15.70;90.20;;;;;;5035032;28;20053;-40
2022/09/11 20:08:57;;;;;;;21.77;15.35;;;15.70;90.20;;;;;;5034751;28;20025;-39
2022/09/11 20:11:25;;;;;;;25.25;14.65;;;15.60;90.30;;;;;;5034643;28;20119;-38
2022/09/11 20:13:52;;;;;;;27.27;16.25;;;15.60;90.30;;;;;;5034588;28;20025;-46
2022/09/11 20:16:21;;;;;;;23.48;15.02;;;15.70;90.40;;;;;;5034857;28;20014;-39
2022/09/11 20:18:50;;;;;;;21.20;14.17;;;15.60;90.10;;;;;;5034767;28;20023;-39
2022/09/11 20:21:16;;;;;;;25.63;16.70;;;15.50;90.10;;;;;;5034599;28;20314;-39
2022/09/11 20:23:43;;;;;;;22.85;15.88;;;15.40;90.10;;;;;;5034757;28;20057;-47
2022/09/11 20:26:15;;;;;;;21.88;14.45;;;15.30;90.20;;;;;;5034599;28;20017;-39
2022/09/11 20:28:41;;;;;;;23.83;14.68;;;15.30;90.20;;;;;;5034609;28;20026;-39
2022/09/11 20:31:17;;;;;;;21.00;15.20;;;15.30;90.30;;;;;;5034615;28;20025;-38
2022/09/11 20:33:44;;;;;;;23.40;15.48;;;15.30;90.40;;;;;;5034639;28;20023;-40
2022/09/11 20:36:11;;;;;;;22.27;15.02;;;15.30;90.40;;;;;;5015431;28;20022;-39
2022/09/11 20:38:37;;;;;;;20.15;14.10;;;15.20;90.40;;;;;;5034836;28;20155;-39
2022/09/11 20:41:11;;;;;;;24.80;16.08;;;15.20;90.50;;;;;;5034433;28;20111;-39
2022/09/11 20:43:37;;;;;;;23.02;15.25;;;15.20;90.60;;;;;;5034551;28;20037;-39
2022/09/11 20:46:03;;;;;;;26.23;16.55;;;15.20;90.60;;;;;;5034491;28;20495;-38
2022/09/11 20:48:29;;;;;;;23.48;15.30;;;15.20;90.60;;;;;;5034267;28;20021;-39
2022/09/11 20:51:00;;;;;;;20.85;15.60;;;15.20;90.60;;;;;;5034128;28;20108;-41
2022/09/11 20:53:26;;;;;;;24.17;16.38;;;15.10;90.60;;;;;;5034296;28;20048;-39
2022/09/11 20:55:51;;;;;;;24.02;15.77;;;15.00;90.60;;;;;;5016019;28;20022;-38
2022/09/11 20:58:17;;;;;;;24.52;16.13;;;15.00;90.70;;;;;;5033814;28;20080;-39
2022/09/11 21:00:44;;;;;;;23.27;15.82;;;15.00;90.80;;;;;;5033838;28;20490;-39
2022/09/11 21:03:11;;;;;;;22.83;15.50;;;15.00;91.00;;;;;;5015913;28;20394;-38
2022/09/11 21:05:36;;;;;;;33.58;17.08;;;15.00;90.80;;;;;;5033709;28;20018;-39
2022/09/11 21:08:02;;;;;;;23.45;14.57;;;15.10;90.90;;;;;;5033577;28;20033;-39
2022/09/11 21:10:28;;;;;;;28.63;16.20;;;15.10;90.70;;;;;;5033711;28;20362;-39
2022/09/11 21:12:54;;;;;;;22.83;15.07;;;15.00;90.70;;;;;;5033437;28;20045;-40
2022/09/11 21:15:20;;;;;;;24.10;15.75;;;15.00;90.70;;;;;;5033782;28;20025;-39
2022/09/11 21:17:49;;;;;;;25.25;15.95;;;14.90;90.70;;;;;;5016062;28;20033;-38
2022/09/11 21:20:14;;;;;;;22.23;14.88;;;14.90;90.80;;;;;;5033671;28;20029;-38
2022/09/11 21:22:40;;;;;;;22.17;15.50;;;14.90;90.80;;;;;;5033420;28;20051;-39
2022/09/11 21:25:06;;;;;;;25.00;15.38;;;14.90;90.80;;;;;;5033456;28;20362;-39
2022/09/11 21:27:32;;;;;;;22.88;16.13;;;14.90;90.90;;;;;;5033356;28;20029;-39
2022/09/11 21:29:57;;;;;;;25.65;16.40;;;14.80;91.00;;;;;;5033862;28;20112;-39
2022/09/11 21:32:24;;;;;;;28.35;16.65;;;14.80;91.00;;;;;;5033150;28;20504;-39
2022/09/11 21:34:49;;;;;;;26.60;17.23;;;14.80;91.10;;;;;;5033458;28;20427;-38
2022/09/11 21:37:15;;;;;;;26.15;17.55;;;14.80;91.10;;;;;;5033750;28;20010;-39
2022/09/11 21:39:41;;;;;;;27.85;18.58;;;14.80;91.20;;;;;;5033198;28;20029;-38
2022/09/11 21:42:06;;;;;;;25.70;16.33;;;14.80;91.10;;;;;;5033311;28;20033;-40
2022/09/11 21:44:32;;;;;;;28.77;18.38;;;14.70;91.10;;;;;;5033227;28;20033;-38
2022/09/11 21:46:58;;;;;;;29.20;16.38;;;14.70;91.20;;;;;;5033278;28;20033;-40
2022/09/11 21:49:24;;;;;;;28.25;17.55;;;14.70;91.20;;;;;;5033093;28;20039;-39
2022/09/11 21:51:49;;;;;;;30.25;16.50;;;14.70;91.30;;;;;;5033326;28;20033;-39
2022/09/11 21:54:15;;;;;;;29.70;16.80;;;14.70;91.30;;;;;;5033300;28;20353;-39
2022/09/11 21:56:41;;;;;;;26.05;16.70;;;14.70;91.40;;;;;;5033316;28;20024;-39
2022/09/11 21:59:07;;;;;;;28.05;17.45;;;14.60;91.50;;;;;;5033063;28;20053;-39
2022/09/11 22:01:32;;;;;;;30.17;17.85;;;14.70;91.50;;;;;;5032986;28;20060;-39
2022/09/11 22:03:59;;;;;;;24.85;15.88;;;14.70;91.50;;;;;;5032951;28;20032;-38
2022/09/11 22:06:26;;;;;;;31.48;17.95;;;14.60;91.50;;;;;;5032811;28;20033;-39
2022/09/11 22:08:52;;;;;;;27.17;16.98;;;14.60;91.50;;;;;;5033009;28;20025;-39
2022/09/11 22:11:19;;;;;;;28.70;16.92;;;14.50;91.60;;;;;;5032769;28;20493;-39
2022/09/11 22:13:46;;;;;;;30.75;18.00;;;14.50;91.60;;;;;;5015839;28;20047;-40
2022/09/11 22:16:17;;;;;;;31.70;18.25;;;14.50;91.70;;;;;;5032713;28;20095;-39
2022/09/11 22:18:48;;;;;;;28.77;17.95;;;14.50;91.70;;;;;;5015082;28;20136;-39
2022/09/11 22:21:14;;;;;;;33.58;19.58;;;14.50;91.70;;;;;;5015609;28;20022;-38
2022/09/11 22:23:39;;;;;;;23.30;15.88;;;14.50;91.80;;;;;;5032863;28;20102;-39
2022/09/11 22:26:12;;;;;;;24.25;15.60;;;14.50;91.70;;;;;;5032559;28;20099;-39
2022/09/11 22:28:38;;;;;;;27.08;18.83;;;14.40;91.70;;;;;;5014894;28;20056;-38
2022/09/11 22:31:15;;;;;;;23.17;15.38;;;14.40;91.70;;;;;;5032846;28;20033;-38
2022/09/11 22:33:41;;;;;;;28.88;16.90;;;14.30;91.80;;;;;;5032829;28;20030;-38
2022/09/11 22:36:15;;;;;;;25.10;15.38;;;14.30;91.90;;;;;;5032538;28;20030;-38
2022/09/11 22:38:41;;;;;;;23.83;15.68;;;14.30;91.90;;;;;;5032560;28;20025;-38
2022/09/11 22:41:08;;;;;;;31.92;17.83;;;14.30;92.00;;;;;;5032331;28;20033;-38
2022/09/11 22:43:34;;;;;;;32.72;18.40;;;14.30;92.00;;;;;;5032473;28;20125;-38
2022/09/11 22:45:59;;;;;;;31.73;20.77;;;14.30;92.10;;;;;;5032775;28;20052;-38
2022/09/11 22:48:25;;;;;;;36.08;19.42;;;14.20;92.10;;;;;;5032644;28;20510;-38
2022/09/11 22:50:53;;;;;;;32.30;19.70;;;14.20;92.10;;;;;;5032394;28;20061;-38
2022/09/11 22:53:19;;;;;;;34.83;20.80;;;14.20;92.10;;;;;;5032552;28;20414;-42
2022/09/11 22:55:48;;;;;;;31.48;18.83;;;14.20;92.20;;;;;;5032330;28;20104;-39
2022/09/11 22:58:14;;;;;;;30.00;18.90;;;14.20;92.20;;;;;;5032680;28;20516;-38
2022/09/11 23:00:41;;;;;;;28.45;18.70;;;14.20;92.10;;;;;;5036355;28;20017;-38
2022/09/11 23:03:07;;;;;;;30.00;18.10;;;14.20;92.20;;;;;;5036419;28;20064;-37
2022/09/11 23:08:17;;;;;;;30.23;18.63;;;14.10;92.10;;;;;;5021328;28;20041;-38
2022/09/11 23:10:43;;;;;;;23.70;17.05;;;14.10;92.20;;;;;;5036237;28;20025;-38
2022/09/11 23:13:09;;;;;;;35.10;18.15;;;14.10;92.20;;;;;;5035665;28;20041;-38
2022/09/11 23:15:35;;;;;;;32.63;18.75;;;14.20;92.20;;;;;;5035868;28;20026;-38
2022/09/11 23:18:01;;;;;;;28.70;18.27;;;14.10;92.20;;;;;;5018193;28;20116;-38
2022/09/11 23:20:29;;;;;;;29.67;19.05;;;14.00;92.20;;;;;;5035775;28;20053;-38
2022/09/11 23:22:55;;;;;;;30.20;18.38;;;14.00;92.20;;;;;;5035612;28;20478;-38
2022/09/11 23:25:23;;;;;;;27.27;16.92;;;13.90;92.20;;;;;;5036204;28;20049;-38
2022/09/11 23:27:50;;;;;;;27.40;18.10;;;13.80;92.30;;;;;;5035967;28;20409;-38
2022/09/11 23:30:16;;;;;;;26.15;17.92;;;13.80;92.30;;;;;;5017766;28;20366;-38
2022/09/11 23:32:42;;;;;;;38.63;19.50;;;13.80;92.40;;;;;;5035348;28;20029;-38
2022/09/11 23:35:08;;;;;;;29.75;19.00;;;13.80;92.50;;;;;;5035780;28;20029;-38
2022/09/11 23:37:33;;;;;;;26.60;17.17;;;13.90;92.50;;;;;;5017683;28;20480;-38
2022/09/11 23:39:59;;;;;;;30.08;17.52;;;13.90;92.50;;;;;;5035587;28;20025;-38
2022/09/11 23:42:25;;;;;;;40.83;19.17;;;13.80;92.50;;;;;;5035345;28;20111;-38
2022/09/11 23:44:50;;;;;;;32.03;18.95;;;13.80;92.50;;;;;;5035605;28;20025;-38
2022/09/11 23:47:16;;;;;;;30.10;19.00;;;13.90;92.50;;;;;;5035541;28;20465;-39
2022/09/11 23:49:42;;;;;;;30.67;18.50;;;13.80;92.50;;;;;;5017431;28;20025;-38
2022/09/11 23:52:08;;;;;;;33.40;17.75;;;13.90;92.60;;;;;;5035268;28;20023;-38
2022/09/11 23:54:34;;;;;;;32.38;19.70;;;13.80;92.60;;;;;;5035240;28;20032;-38
2022/09/11 23:57:00;;;;;;;28.73;18.52;;;13.80;92.60;;;;;;5017763;28;20040;-39
2022/09/11 23:59:25;;;;;;;28.67;18.50;;;13.80;92.50;;;;;;5035329;28;20017;-38
